Weather observations for the past three days for
MOUNT WILSON
Imperial (Metric)
Date Time (pdt) Wind (mph) Vis. (mi.) Weather Sky Cond. Temperature (ºF) Relative Humidity Wind Chill (°F) Heat Index (°F) Pressure Precipitation (in)
Air Dwpt 6 hour altimeter (in) sea level (mb) 1 hr 3 hr 6 hr
Max. Min.
30 22:20 SW 7 0.00 NULL NULL 66.2 33.8 30% 0 0.0
30 21:20 SW 6 G 8 0.00 NULL NULL 66.2 33.8 30% 0 0.0
30 20:20 SW 5 G 6 0.00 NULL NULL 68 32 26% 0 0.0
30 19:20 W 5 G 7 0.00 NULL NULL 69.8 41 35% 0 0.0
30 18:20 W 6 0.00 NULL NULL 73.4 50 44% 0 0.0
30 17:20 SW 7 0.00 NULL NULL 73.4 50 44% 0 0.0
30 16:20 SW 7 0.00 NULL NULL 75.2 55.4 50% 78 0 0.0
30 15:20 SW 6 0.00 NULL NULL 75.2 55.4 50% 78 0 0.0
30 14:20 SW 6 G 12 0.00 NULL NULL 73.4 57.2 57% 0 0.0
30 13:20 SW 6 0.00 NULL NULL 73.4 55.4 53% 0 0.0
30 12:20 SW 7 0.00 NULL NULL 73.4 57.2 57% 0 0.0
30 11:20 SW 5 G 8 0.00 NULL NULL 73.4 48.2 41% 0 0.0
30 10:20 W 2 0.00 NULL NULL 71.6 48.2 44% 0 0.0
30 09:20 SW 2 0.00 NULL NULL 69.8 46.4 43% 0 0.0
30 08:20 SW 1 0.00 NULL NULL 68 46.4 46% 0 0.0
30 07:20 W 6 G 6 0.00 NULL NULL 68 46.4 46% 0 0.0
30 05:20 Calm 0.00 NULL NULL 66.2 46.4 49% 0 0.0
30 04:20 Calm 0.00 NULL NULL 66.2 46.4 49% 0 0.0
30 03:20 SW 1 0.00 NULL NULL 66.2 46.4 49% 0 0.0
30 02:20 S 2 0.00 NULL NULL 66.2 46.4 49% 0 0.0
30 01:20 S 2 0.00 NULL NULL 66.2 46.4 49% 0 0.0
30 00:20 SW 5 G 7 0.00 NULL NULL 68 48.2 49% 0 0.0
29 23:20 SW 3 0.00 NULL NULL 68 48.2 49% 0 0.0
29 22:20 SW 5 0.00 NULL NULL 68 46.4 46% 0 0.0
29 21:20 SW 5 G 6 0.00 NULL NULL 68 46.4 46% 0 0.0
29 20:20 SW 6 G 7 0.00 NULL NULL 68 50 53% 0 0.0
29 19:20 SW 3 0.00 NULL NULL 71.6 55.4 57% 0 0.0
29 18:20 SW 5 G 8 0.00 NULL NULL 75.2 53.6 47% 78 0 0.0
29 17:20 SW 6 0.00 NULL NULL 77 57.2 51% 79 0 0.0
29 16:20 SW 7 0.00 NULL NULL 78.8 59 51% 80 0 0.0
29 15:20 SW 7 G 13 0.00 NULL NULL 78.8 59 51% 80 0 0.0
29 14:20 SW 7 G 12 0.00 NULL NULL 78.8 57.2 48% 80 0 0.0
29 13:20 SW 7 0.00 NULL NULL 78.8 55.4 45% 79 0 0.0
29 12:20 SW 5 G 8 0.00 NULL NULL 77 53.6 44% 78 0 0.0
29 11:20 SW 5 G 8 0.00 NULL NULL 75.2 50 41% 78 0 0.0
29 10:20 SW 5 G 8 0.00 NULL NULL 75.2 51.8 44% 78 0 0.0
29 09:20 SW 6 G 8 0.00 NULL NULL 71.6 51.8 50% 0 0.0
29 08:20 SW 5 G 7 0.00 NULL NULL 69.8 50 50% 0 0.0
29 07:20 SW 5 G 8 0.00 NULL NULL 68 48.2 49% 0 0.0
29 06:20 W 3 G 7 0.00 NULL NULL 68 48.2 49% 0 0.0
29 05:20 W 5 G 8 0.00 NULL NULL 68 50 53% 0 0.0
29 04:20 W 5 G 8 0.00 NULL NULL 69.8 50 50% 0 0.0
29 03:20 SW 7 G 8 0.00 NULL NULL 69.8 51.8 53% 0 0.0
29 02:20 SW 7 G 8 0.00 NULL NULL 71.6 53.6 53% 0 0.0
29 01:20 SW 6 G 8 0.00 NULL NULL 71.6 53.6 53% 0 0.0
29 00:20 SW 6 G 8 0.00 NULL NULL 71.6 53.6 53% 0 0.0
28 23:20 SW 3 G 6 0.00 NULL NULL 71.6 51.8 50% 0 0.0
28 22:20 W 6 G 8 0.00 NULL NULL 73.4 51.8 47% 0 0.0
28 21:20 NW 3 G 6 0.00 NULL NULL 73.4 46.4 38% 0 0.0
28 20:20 SE 1 G 6 0.00 NULL NULL 73.4 46.4 38% 0 0.0
28 19:20 SW 5 G 7 0.00 NULL NULL 75.2 51.8 44% 78 0 0.0
28 18:20 SW 6 0.00 NULL NULL 78.8 55.4 45% 79 0 0.0
28 17:20 SW 5 0.00 NULL NULL 80.6 55.4 42% 81 0 0.0
28 16:20 SW 6 0.00 NULL NULL 82.4 55.4 40% 82 0 0.0
28 15:20 SW 7 G 12 0.00 NULL NULL 82.4 57.2 42% 82 0 0.0
28 14:20 SW 8 G 13 0.00 NULL NULL 80.6 57.2 45% 81 0 0.0
28 13:20 SW 7 G 13 0.00 NULL NULL 82.4 53.6 37% 81 0 0.0
28 12:20 SW 6 0.00 NULL NULL 80.6 51.8 37% 80 0 0.0
28 11:20 SW 6 G 8 0.00 NULL NULL 82.4 51.8 35% 81 0 0.0
28 10:20 SW 5 G 7 0.00 NULL NULL 78.8 50 37% 79 0 0.0
28 09:20 SW 3 G 6 0.00 NULL NULL 77 50 39% 78 0 0.0
28 08:20 SW 1 0.00 NULL NULL 75.2 48.2 39% 77 0 0.0
28 07:20 SW 1 0.00 NULL NULL 73.4 50 44% 0 0.0
28 06:15 SW 3 0.00 NULL NULL 73.4 48.2 41% 0 0.0
28 05:15 SW 3 0.00 NULL NULL 73.4 48.2 41% 0 0.0
28 04:20 SW 3 0.00 NULL NULL 73.4 50 44% 0 0.0
28 03:20 SW 6 G 6 0.00 NULL NULL 73.4 51.8 47% 0 0.0
28 02:20 SW 5 G 6 0.00 NULL NULL 73.4 50 44% 0 0.0
28 01:20 SW 5 G 6 0.00 NULL NULL 75.2 48.2 39% 77 0 0.0
28 00:20 SW 5 G 6 0.00 NULL NULL 75.2 46.4 36% 77 0 0.0
27 23:20 SW 3 0.00 NULL NULL 77 46.4 34% 78 0 0.0
Date Time (pdt) Wind (mph) Vis. (mi.) Weather Sky Cond. Air Dwpt Max. Min. Relative Humidity Wind Chill (°F) Heat Index (°F) altimeter (in) sea level (mb) 1 hr 3 hr 6 hr
6 hour
Temperature (ºF) Pressure Precipitation (in)